createdAt,value
2018-02-01T00:01:02.999Z,1.60
2018-02-01T00:03:30.499Z,1.40
2018-02-01T00:05:58.037Z,2.03
2018-02-01T00:08:25.569Z,2.30
2018-02-01T00:10:53.116Z,1.50
2018-02-01T00:13:20.652Z,1.50
2018-02-01T00:15:48.183Z,1.63
2018-02-01T00:18:15.672Z,1.60
2018-02-01T00:20:43.960Z,1.73
2018-02-01T00:23:11.509Z,2.47
2018-02-01T00:25:39.780Z,1.30
2018-02-01T00:28:08.048Z,1.10
2018-02-01T00:30:36.331Z,2.23
2018-02-01T00:33:04.620Z,1.80
2018-02-01T00:35:32.137Z,1.70
2018-02-01T00:37:59.640Z,1.93
2018-02-01T00:40:27.136Z,1.37
2018-02-01T00:42:54.660Z,1.70
2018-02-01T00:45:22.164Z,1.13
2018-02-01T00:47:49.801Z,1.93
2018-02-01T00:50:17.324Z,1.20
2018-02-01T00:52:44.821Z,1.30
2018-02-01T00:55:12.344Z,1.43
2018-02-01T00:57:39.840Z,1.10
2018-02-01T01:00:07.370Z,1.73
2018-02-01T01:02:34.868Z,1.20
2018-02-01T01:05:02.382Z,1.23
2018-02-01T01:07:29.879Z,1.23
2018-02-01T01:09:57.388Z,1.00
2018-02-01T01:12:24.895Z,1.03
2018-02-01T01:14:52.409Z,1.93
2018-02-01T01:17:19.923Z,1.13
2018-02-01T01:19:47.411Z,1.00
2018-02-01T01:22:14.939Z,0.80
2018-02-01T01:24:42.440Z,1.20
2018-02-01T01:27:09.967Z,0.90
2018-02-01T01:29:38.240Z,1.10
2018-02-01T01:32:06.554Z,0.90
2018-02-01T01:34:34.084Z,0.80
2018-02-01T01:37:02.342Z,0.90
2018-02-01T01:39:30.019Z,1.10
2018-02-01T01:41:58.288Z,0.90
2018-02-01T01:44:26.574Z,0.90
2018-02-01T01:46:54.860Z,1.00
2018-02-01T01:49:22.373Z,1.00
2018-02-01T01:51:49.907Z,0.90
2018-02-01T01:54:17.758Z,0.90
2018-02-01T01:56:45.267Z,1.17
2018-02-01T01:59:12.756Z,1.57
2018-02-01T02:01:40.296Z,0.80
2018-02-01T02:04:08.572Z,1.97
2018-02-01T02:06:36.844Z,0.87
2018-02-01T02:09:05.141Z,1.00
2018-02-01T02:11:32.651Z,1.00
2018-02-01T02:14:00.179Z,0.90
2018-02-01T02:16:27.674Z,0.80
2018-02-01T02:18:55.191Z,1.00
2018-02-01T02:21:22.693Z,0.90
2018-02-01T02:23:50.975Z,0.80
2018-02-01T02:26:18.573Z,0.90
2018-02-01T02:28:46.090Z,0.90
2018-02-01T02:31:13.656Z,0.80
2018-02-01T02:33:41.913Z,0.90
2018-02-01T02:36:09.439Z,0.90
2018-02-01T02:38:36.942Z,0.90
2018-02-01T02:41:05.225Z,0.90
2018-02-01T02:43:33.504Z,0.90
2018-02-01T02:46:01.804Z,0.90
2018-02-01T02:48:29.368Z,0.80
2018-02-01T02:50:56.859Z,0.80
2018-02-01T02:53:24.384Z,0.80
2018-02-01T02:55:51.881Z,0.90
2018-02-01T02:58:19.388Z,1.00
2018-02-01T03:00:46.897Z,0.93
2018-02-01T03:03:14.421Z,0.90
2018-02-01T03:05:41.951Z,1.00
2018-02-01T03:08:09.436Z,0.90
2018-02-01T03:10:36.959Z,0.90
2018-02-01T03:13:05.209Z,0.80
2018-02-01T03:15:32.697Z,0.90
2018-02-01T03:18:00.972Z,0.93
2018-02-01T03:20:28.492Z,1.00
2018-02-01T03:22:56.015Z,1.10
2018-02-01T03:25:23.505Z,1.27
2018-02-01T03:27:51.063Z,0.90
2018-02-01T03:30:18.549Z,1.00
2018-02-01T03:32:46.802Z,1.07
2018-02-01T03:35:14.315Z,1.10
2018-02-01T03:37:41.808Z,1.40
2018-02-01T03:40:09.339Z,0.90
2018-02-01T03:42:36.827Z,0.90
2018-02-01T03:45:05.132Z,0.90
2018-02-01T03:47:33.384Z,0.90
2018-02-01T03:50:00.924Z,1.00
2018-02-01T03:52:28.417Z,1.00
2018-02-01T03:54:56.671Z,0.87
2018-02-01T03:57:24.199Z,0.90
2018-02-01T03:59:51.696Z,0.90
2018-02-01T04:02:19.999Z,0.90
2018-02-01T04:04:47.500Z,2.00
2018-02-01T04:07:15.019Z,1.17
2018-02-01T04:09:42.530Z,1.00
2018-02-01T04:12:10.023Z,1.00
2018-02-01T04:14:38.322Z,2.00
2018-02-01T04:17:05.816Z,1.00
2018-02-01T04:19:33.340Z,0.90
2018-02-01T04:22:00.835Z,0.90
2018-02-01T04:24:28.391Z,0.90
2018-02-01T04:26:55.884Z,0.90
2018-02-01T04:29:23.391Z,0.90
2018-02-01T04:31:50.891Z,0.80
2018-02-01T04:34:19.174Z,1.00
2018-02-01T04:36:47.458Z,1.03
2018-02-01T04:39:14.975Z,1.00
2018-02-01T04:41:43.254Z,1.10
2018-02-01T04:44:10.752Z,1.10
2018-02-01T04:46:38.290Z,1.00
2018-02-01T04:49:06.574Z,1.23
2018-02-01T04:51:34.840Z,1.10
2018-02-01T04:54:02.372Z,1.00
2018-02-01T04:56:29.895Z,0.90
2018-02-01T04:58:57.400Z,1.30
2018-02-01T05:01:24.901Z,1.30
2018-02-01T05:03:52.420Z,1.40
2018-02-01T05:06:20.682Z,1.30
2018-02-01T05:08:48.223Z,1.43
2018-02-01T05:11:15.754Z,1.50
2018-02-01T05:13:43.314Z,1.10
2018-02-01T05:16:10.845Z,1.33
2018-02-01T05:18:38.359Z,1.20
2018-02-01T05:21:05.844Z,1.00
2018-02-01T05:23:34.120Z,1.10
2018-02-01T05:26:02.406Z,1.27
2018-02-01T05:28:30.681Z,1.47
2018-02-01T05:30:59.001Z,1.20
2018-02-01T05:33:26.506Z,1.00
2018-02-01T05:35:54.792Z,1.70
2018-02-01T05:38:22.285Z,1.20
2018-02-01T05:40:49.845Z,1.10
2018-02-01T05:43:17.347Z,1.00
2018-02-01T05:45:46.348Z,1.30
2018-02-01T05:48:14.662Z,1.63
2018-02-01T05:50:42.173Z,1.47
2018-02-01T05:53:10.468Z,1.40
2018-02-01T05:55:38.032Z,1.10
2018-02-01T05:58:05.517Z,1.20
2018-02-01T06:00:33.056Z,1.73
2018-02-01T06:03:00.568Z,2.20
2018-02-01T06:05:28.860Z,2.23
2018-02-01T06:07:57.135Z,1.97
2018-02-01T06:10:26.288Z,4.40
2018-02-01T06:12:53.819Z,1.10
2018-02-01T06:15:21.324Z,1.10
2018-02-01T06:17:48.854Z,1.90
2018-02-01T06:20:16.355Z,2.23
2018-02-01T06:22:43.863Z,2.60
2018-02-01T06:25:11.375Z,1.23
2018-02-01T06:27:39.628Z,1.10
2018-02-01T06:30:07.150Z,1.13
2018-02-01T06:32:34.635Z,1.53
2018-02-01T06:35:02.181Z,1.23
2018-02-01T06:37:30.518Z,1.57
2018-02-01T06:39:58.020Z,2.10
2018-02-01T06:42:25.562Z,1.27
2018-02-01T06:44:53.084Z,1.00
2018-02-01T06:47:21.380Z,1.30
2018-02-01T06:49:48.876Z,2.07
2018-02-01T06:52:16.403Z,1.73
2018-02-01T06:54:43.893Z,1.37
2018-02-01T06:57:11.410Z,2.57
2018-02-01T06:59:38.913Z,3.63
2018-02-01T07:02:06.509Z,2.00
2018-02-01T07:04:34.004Z,2.97
2018-02-01T07:07:01.494Z,3.73
2018-02-01T07:09:29.016Z,2.23
2018-02-01T07:11:56.516Z,1.30
2018-02-01T07:14:24.801Z,1.03
2018-02-01T07:16:53.067Z,1.40
2018-02-01T07:19:21.350Z,2.70
2018-02-01T07:21:49.609Z,2.80
2018-02-01T07:24:17.908Z,1.30
2018-02-01T07:26:45.432Z,1.63
2018-02-01T07:29:12.921Z,1.73
2018-02-01T07:31:41.334Z,1.70
2018-02-01T07:34:08.848Z,1.70
2018-02-01T07:36:37.175Z,1.27
2018-02-01T07:39:04.664Z,1.40
2018-02-01T07:41:32.169Z,1.50
2018-02-01T07:43:59.700Z,1.30
2018-02-01T07:46:29.505Z,1.27
2018-02-01T07:48:57.036Z,2.03
2018-02-01T07:51:24.540Z,2.20
2018-02-01T07:53:52.052Z,2.57
2018-02-01T07:56:19.566Z,1.73
2018-02-01T07:58:47.076Z,1.53
2018-02-01T08:01:14.619Z,1.30
2018-02-01T08:03:42.120Z,1.53
2018-02-01T08:06:09.630Z,2.93
2018-02-01T08:08:37.201Z,1.50
2018-02-01T08:11:05.480Z,2.27
2018-02-01T08:13:32.991Z,2.77
2018-02-01T08:16:00.492Z,1.70
2018-02-01T08:18:28.002Z,1.50
2018-02-01T08:20:55.524Z,1.50
2018-02-01T08:23:23.072Z,3.10
2018-02-01T08:25:50.580Z,3.20
2018-02-01T08:28:18.087Z,2.10
2018-02-01T08:30:45.623Z,1.77
2018-02-01T08:33:13.129Z,2.17
2018-02-01T08:35:40.657Z,2.50
2018-02-01T08:38:08.154Z,1.87
2018-02-01T08:40:35.669Z,1.60
2018-02-01T08:43:03.160Z,1.73
2018-02-01T08:45:31.444Z,1.90
2018-02-01T08:47:58.936Z,1.60
2018-02-01T08:50:26.441Z,3.37
2018-02-01T08:52:54.712Z,1.30
2018-02-01T08:55:23.001Z,1.30
2018-02-01T08:57:50.500Z,1.47
2018-02-01T09:00:17.991Z,1.60
2018-02-01T09:02:45.502Z,1.20
2018-02-01T09:05:13.023Z,1.03
2018-02-01T09:07:41.317Z,1.40
2018-02-01T09:10:08.825Z,1.67
2018-02-01T09:12:36.375Z,3.03
2018-02-01T09:15:03.899Z,1.10
2018-02-01T09:17:31.403Z,1.50
2018-02-01T09:19:58.926Z,1.20
2018-02-01T09:22:26.421Z,1.17
2018-02-01T09:24:53.947Z,1.30
2018-02-01T09:27:21.431Z,1.73
2018-02-01T09:29:48.986Z,1.53
2018-02-01T09:32:16.495Z,2.17
2018-02-01T09:34:43.991Z,2.70
2018-02-01T09:37:11.507Z,1.60
2018-02-01T09:39:39.012Z,1.60
2018-02-01T09:42:06.540Z,1.50
2018-02-01T09:44:34.024Z,1.27
2018-02-01T09:47:01.541Z,2.73
2018-02-01T09:49:29.041Z,2.13
2018-02-01T09:51:56.594Z,1.40
2018-02-01T09:54:24.077Z,2.63
2018-02-01T09:56:52.346Z,1.10
2018-02-01T09:59:19.860Z,2.63
2018-02-01T10:01:47.372Z,2.70
2018-02-01T10:04:15.686Z,1.53
2018-02-01T10:06:43.195Z,1.83
2018-02-01T10:09:10.751Z,1.70
2018-02-01T10:11:38.256Z,2.07
2018-02-01T10:14:05.759Z,2.00
2018-02-01T10:16:33.272Z,4.00
2018-02-01T10:19:00.892Z,3.20
2018-02-01T10:21:29.177Z,2.03
2018-02-01T10:23:57.431Z,2.47
2018-02-01T10:26:24.960Z,1.37
2018-02-01T10:28:52.471Z,1.73
2018-02-01T10:31:20.760Z,2.30
2018-02-01T10:33:48.277Z,2.40
2018-02-01T10:36:15.771Z,2.77
2018-02-01T10:38:43.371Z,2.00
2018-02-01T10:41:10.875Z,2.67
2018-02-01T10:43:39.886Z,4.70
2018-02-01T10:46:07.368Z,1.60
2018-02-01T10:48:34.882Z,1.97
2018-02-01T10:51:03.143Z,2.67
2018-02-01T10:53:31.439Z,1.50
2018-02-01T10:55:58.942Z,1.27
2018-02-01T10:58:26.456Z,2.33
2018-02-01T11:00:53.993Z,2.10
2018-02-01T11:03:22.261Z,4.33
2018-02-01T11:05:49.776Z,1.47
2018-02-01T11:08:17.275Z,1.80
2018-02-01T11:10:46.295Z,2.00
2018-02-01T11:13:13.792Z,3.03
2018-02-01T11:15:41.296Z,1.83
2018-02-01T11:18:09.616Z,2.70
2018-02-01T11:20:37.151Z,1.27
2018-02-01T11:23:04.671Z,1.23
2018-02-01T11:25:32.201Z,3.10
2018-02-01T11:27:59.729Z,1.83
2018-02-01T11:30:27.264Z,2.60
2018-02-01T11:32:55.519Z,1.60
2018-02-01T11:35:23.033Z,1.30
2018-02-01T11:37:50.542Z,1.50
2018-02-01T11:40:18.091Z,1.37
2018-02-01T11:42:45.585Z,2.17
2018-02-01T11:45:13.107Z,1.20
2018-02-01T11:47:40.623Z,1.20
2018-02-01T11:50:08.160Z,1.20
2018-02-01T11:52:35.651Z,1.20
2018-02-01T11:55:03.180Z,2.30
2018-02-01T11:57:30.686Z,1.43
2018-02-01T11:59:58.200Z,1.47
2018-02-01T12:02:25.725Z,1.40
2018-02-01T12:04:54.006Z,1.37
2018-02-01T12:07:22.295Z,1.87
2018-02-01T12:09:49.793Z,1.40
2018-02-01T12:12:17.328Z,2.50
2018-02-01T12:14:44.841Z,1.40
2018-02-01T12:17:13.154Z,4.53
2018-02-01T12:19:40.659Z,2.27
2018-02-01T12:22:08.159Z,1.57
2018-02-01T12:24:35.679Z,4.20
2018-02-01T12:27:03.176Z,3.67
2018-02-01T12:29:30.697Z,2.03
2018-02-01T12:31:58.233Z,1.67
2018-02-01T12:34:25.763Z,1.30
2018-02-01T12:36:53.301Z,3.20
2018-02-01T12:39:21.575Z,1.47
2018-02-01T12:41:49.874Z,2.20
2018-02-01T12:44:17.375Z,2.30
2018-02-01T12:46:44.895Z,4.00
2018-02-01T12:49:12.403Z,2.80
2018-02-01T12:51:39.920Z,5.07
2018-02-01T12:54:07.434Z,3.23
2018-02-01T12:56:34.964Z,1.27
2018-02-01T12:59:02.499Z,1.53
2018-02-01T13:01:30.019Z,6.57
2018-02-01T13:03:57.575Z,1.60
2018-02-01T13:06:25.074Z,1.67
2018-02-01T13:08:52.612Z,2.23
2018-02-01T13:11:20.108Z,1.83
2018-02-01T13:13:47.608Z,1.50
2018-02-01T13:16:15.136Z,3.60
2018-02-01T13:18:42.684Z,2.87
2018-02-01T13:21:10.184Z,2.30
2018-02-01T13:23:37.688Z,1.60
2018-02-01T13:26:05.215Z,1.43
2018-02-01T13:28:32.716Z,1.77
2018-02-01T13:31:00.246Z,2.00
2018-02-01T13:33:27.740Z,1.67
2018-02-01T13:35:55.238Z,2.33
2018-02-01T13:38:22.756Z,1.73
2018-02-01T13:40:51.022Z,5.20
2018-02-01T13:43:18.552Z,1.60
2018-02-01T13:45:46.055Z,2.13
2018-02-01T13:48:14.361Z,1.90
2018-02-01T13:50:41.882Z,2.70
2018-02-01T13:53:10.183Z,2.20
2018-02-01T13:55:37.688Z,1.63
2018-02-01T13:58:05.181Z,2.47
2018-02-01T14:00:33.474Z,4.10
2018-02-01T14:03:01.167Z,1.57
2018-02-01T14:05:28.691Z,4.37
2018-02-01T14:07:56.183Z,4.67
2018-02-01T14:10:23.749Z,1.90
2018-02-01T14:12:51.243Z,2.43
2018-02-01T14:15:19.613Z,2.77
2018-02-01T14:17:47.141Z,3.40
2018-02-01T14:20:14.635Z,3.23
2018-02-01T14:22:42.918Z,2.90
2018-02-01T14:25:11.203Z,6.93
2018-02-01T14:27:38.732Z,1.50
2018-02-01T14:30:06.282Z,5.90
2018-02-01T14:32:33.786Z,2.33
2018-02-01T14:35:01.353Z,2.93
2018-02-01T14:37:28.840Z,2.83
2018-02-01T14:39:56.356Z,3.30
2018-02-01T14:42:23.881Z,2.33
2018-02-01T14:44:51.408Z,2.00
2018-02-01T14:47:18.925Z,2.60
2018-02-01T14:49:46.447Z,5.30
2018-02-01T14:52:13.963Z,1.60
2018-02-01T14:54:41.515Z,3.50
2018-02-01T14:57:09.050Z,5.50
2018-02-01T14:59:37.330Z,2.70
2018-02-01T15:02:04.884Z,3.57
2018-02-01T15:04:32.433Z,2.83
2018-02-01T15:07:00.723Z,3.47
2018-02-01T15:09:28.223Z,3.37
2018-02-01T15:11:55.730Z,3.60
2018-02-01T15:14:24.029Z,2.20
2018-02-01T15:16:51.539Z,6.20
2018-02-01T15:19:19.072Z,3.17
2018-02-01T15:21:46.576Z,6.03
2018-02-01T15:24:14.880Z,2.00
2018-02-01T15:26:42.419Z,4.23
2018-02-01T15:29:09.935Z,2.00
2018-02-01T15:31:37.478Z,2.20
2018-02-01T15:34:04.976Z,2.17
2018-02-01T15:36:33.284Z,4.40
2018-02-01T15:39:00.793Z,3.00
2018-02-01T15:41:28.329Z,5.10
2018-02-01T15:43:55.896Z,5.63
2018-02-01T15:46:23.436Z,4.97
2018-02-01T15:48:50.944Z,4.90
2018-02-01T15:51:19.217Z,5.30
2018-02-01T15:53:47.492Z,3.80
2018-02-01T15:56:15.757Z,4.60
2018-02-01T15:58:43.278Z,3.63
2018-02-01T16:01:10.788Z,4.13
2018-02-01T16:03:39.089Z,2.33
2018-02-01T16:06:06.593Z,3.03
2018-02-01T16:08:34.122Z,2.80
2018-02-01T16:11:01.652Z,5.80
2018-02-01T16:13:29.178Z,4.10
2018-02-01T16:15:57.477Z,4.30
2018-02-01T16:18:24.979Z,2.53
2018-02-01T16:20:52.526Z,2.27
2018-02-01T16:23:20.047Z,3.70
2018-02-01T16:25:47.575Z,3.43
2018-02-01T16:28:15.089Z,3.67
2018-02-01T16:30:42.608Z,4.80
2018-02-01T16:33:10.934Z,3.90
2018-02-01T16:35:38.432Z,5.03
2018-02-01T16:38:05.966Z,2.10
2018-02-01T16:40:33.481Z,3.40
2018-02-01T16:43:01.005Z,1.63
2018-02-01T16:45:28.526Z,3.40
2018-02-01T16:47:56.202Z,5.53
2018-02-01T16:50:23.716Z,4.67
2018-02-01T16:52:51.240Z,3.00
2018-02-01T16:55:18.768Z,3.30
2018-02-01T16:57:46.288Z,2.90
2018-02-01T17:00:13.789Z,5.17
2018-02-01T17:02:41.318Z,3.00
2018-02-01T17:05:08.876Z,5.20
2018-02-01T17:07:36.410Z,3.00
2018-02-01T17:10:03.912Z,3.20
2018-02-01T17:12:31.419Z,3.10
2018-02-01T17:14:59.724Z,2.70
2018-02-01T17:17:27.232Z,3.10
2018-02-01T17:19:54.760Z,6.20
2018-02-01T17:22:22.315Z,2.10
2018-02-01T17:24:49.880Z,2.87
2018-02-01T17:27:17.407Z,4.40
2018-02-01T17:29:44.920Z,2.27
2018-02-01T17:32:12.467Z,2.70
2018-02-01T17:34:39.970Z,5.30
2018-02-01T17:37:07.531Z,4.13
2018-02-01T17:39:35.078Z,3.50
2018-02-01T17:42:02.604Z,4.93
2018-02-01T17:44:30.135Z,3.40
2018-02-01T17:46:57.729Z,3.10
2018-02-01T17:49:25.285Z,4.53
2018-02-01T17:51:52.794Z,2.27
2018-02-01T17:54:20.312Z,5.03
2018-02-01T17:56:47.902Z,3.13
2018-02-01T17:59:15.453Z,3.07
2018-02-01T18:01:42.981Z,6.63
2018-02-01T18:04:10.478Z,3.50
2018-02-01T18:06:37.996Z,2.20
2018-02-01T18:09:06.284Z,3.37
2018-02-01T18:11:34.572Z,2.40
2018-02-01T18:14:02.101Z,3.17
2018-02-01T18:16:30.447Z,2.80
2018-02-01T18:18:57.947Z,4.57
2018-02-01T18:21:25.513Z,3.80
2018-02-01T18:23:53.789Z,3.30
2018-02-01T18:26:22.072Z,4.30
2018-02-01T18:28:49.614Z,4.20
2018-02-01T18:31:17.901Z,3.47
2018-02-01T18:33:45.420Z,2.60
2018-02-01T18:36:12.930Z,3.00
2018-02-01T18:38:40.504Z,5.70
2018-02-01T18:41:08.008Z,5.40
2018-02-01T18:43:35.579Z,4.70
2018-02-01T18:46:03.885Z,3.63
2018-02-01T18:48:31.391Z,3.03
2018-02-01T18:50:59.793Z,4.50
2018-02-01T18:53:28.060Z,4.97
2018-02-01T18:55:56.328Z,7.13
2018-02-01T18:58:23.860Z,3.97
2018-02-01T19:00:51.385Z,3.67
2018-02-01T19:03:18.916Z,3.87
2018-02-01T19:05:47.219Z,3.60
2018-02-01T19:08:14.745Z,3.83
2018-02-01T19:10:43.062Z,4.80
2018-02-01T19:13:10.572Z,5.80
2018-02-01T19:15:38.883Z,5.40
2018-02-01T19:18:06.495Z,3.03
2018-02-01T19:20:34.028Z,3.10
2018-02-01T19:23:01.575Z,2.90
2018-02-01T19:25:29.117Z,2.80
2018-02-01T19:27:56.612Z,4.03
2018-02-01T19:30:24.162Z,4.73
2018-02-01T19:32:51.708Z,4.50
2018-02-01T19:35:19.216Z,3.00
2018-02-01T19:37:47.473Z,3.60
2018-02-01T19:40:14.995Z,5.73
2018-02-01T19:42:42.528Z,3.63
2018-02-01T19:45:10.864Z,7.90
2018-02-01T19:47:38.379Z,6.97
2018-02-01T19:50:05.921Z,5.13
2018-02-01T19:52:34.270Z,2.70
2018-02-01T19:55:01.828Z,2.57
2018-02-01T19:57:29.355Z,4.53
2018-02-01T19:59:56.949Z,4.60
2018-02-01T20:02:24.474Z,5.13
2018-02-01T20:04:51.979Z,3.47
2018-02-01T20:07:20.310Z,3.50
2018-02-01T20:09:47.845Z,5.20
2018-02-01T20:12:15.375Z,7.80
2018-02-01T20:14:43.811Z,5.47
2018-02-01T20:17:11.345Z,5.53
2018-02-01T20:19:38.854Z,3.70
2018-02-01T20:22:07.167Z,9.70
2018-02-01T20:24:34.843Z,4.73
2018-02-01T20:27:02.396Z,5.27
2018-02-01T20:29:29.927Z,3.10
2018-02-01T20:31:58.241Z,2.80
2018-02-01T20:34:25.812Z,5.07
2018-02-01T20:36:53.317Z,5.67
2018-02-01T20:39:21.653Z,3.50
2018-02-01T20:41:49.217Z,3.33
2018-02-01T20:44:16.770Z,2.47
2018-02-01T20:46:44.304Z,3.50
2018-02-01T20:49:11.873Z,4.63
2018-02-01T20:51:39.405Z,6.93
2018-02-01T20:54:07.039Z,6.00
2018-02-01T20:56:35.353Z,6.50
2018-02-01T20:59:02.873Z,3.60
2018-02-01T21:01:31.174Z,3.03
2018-02-01T21:03:58.693Z,3.50
2018-02-01T21:06:26.226Z,4.00
2018-02-01T21:08:53.752Z,2.50
2018-02-01T21:11:21.339Z,2.30
2018-02-01T21:13:48.860Z,3.37
2018-02-01T21:16:16.510Z,3.30
2018-02-01T21:18:44.035Z,5.47
2018-02-01T21:21:11.615Z,10.13
2018-02-01T21:23:39.944Z,3.70
2018-02-01T21:26:07.480Z,2.43
2018-02-01T21:28:35.057Z,4.27
2018-02-01T21:31:02.576Z,3.00
2018-02-01T21:33:30.132Z,4.70
2018-02-01T21:35:57.727Z,2.73
2018-02-01T21:38:25.263Z,2.13
2018-02-01T21:40:52.806Z,3.27
2018-02-01T21:43:21.215Z,4.70
2018-02-01T21:45:48.773Z,4.23
2018-02-01T21:48:16.400Z,4.53
2018-02-01T21:50:43.977Z,2.80
2018-02-01T21:53:11.524Z,3.30
2018-02-01T21:55:39.045Z,3.20
2018-02-01T21:58:06.584Z,3.20
2018-02-01T22:00:34.106Z,4.00
2018-02-01T22:03:01.650Z,2.97
2018-02-01T22:05:29.173Z,4.23
2018-02-01T22:07:56.696Z,4.03
2018-02-01T22:10:24.267Z,4.57
2018-02-01T22:12:51.787Z,4.03
2018-02-01T22:15:19.346Z,3.83
2018-02-01T22:17:46.849Z,2.73
2018-02-01T22:20:14.367Z,2.27
2018-02-01T22:22:41.887Z,3.40
2018-02-01T22:25:09.407Z,4.50
2018-02-01T22:27:36.949Z,2.63
2018-02-01T22:30:04.459Z,6.00
2018-02-01T22:32:31.980Z,2.23
2018-02-01T22:34:59.501Z,6.47
2018-02-01T22:37:27.072Z,8.90
2018-02-01T22:39:54.576Z,3.80
2018-02-01T22:42:22.096Z,2.00
2018-02-01T22:44:49.614Z,2.80
2018-02-01T22:47:17.931Z,4.73
2018-02-01T22:49:45.424Z,4.40
2018-02-01T22:52:12.918Z,3.70
2018-02-01T22:54:41.238Z,5.07
2018-02-01T22:57:08.737Z,4.57
2018-02-01T22:59:37.049Z,6.43
2018-02-01T23:02:04.558Z,5.77
2018-02-01T23:04:32.067Z,3.67
2018-02-01T23:06:59.614Z,3.00
2018-02-01T23:09:27.135Z,2.00
2018-02-01T23:11:56.184Z,2.60
2018-02-01T23:14:23.705Z,3.10
2018-02-01T23:16:52.027Z,3.67
2018-02-01T23:19:19.542Z,3.43
2018-02-01T23:21:47.867Z,2.17
2018-02-01T23:24:15.392Z,3.30
2018-02-01T23:26:42.969Z,6.27
2018-02-01T23:29:10.476Z,2.10
2018-02-01T23:31:37.998Z,1.97
2018-02-01T23:34:05.570Z,2.20
2018-02-01T23:36:33.103Z,3.40
2018-02-01T23:39:00.777Z,2.83
2018-02-01T23:41:28.311Z,4.03
2018-02-01T23:43:55.828Z,2.57
2018-02-01T23:46:24.240Z,2.63
2018-02-01T23:48:52.122Z,2.53
2018-02-01T23:51:19.867Z,2.10
2018-02-01T23:53:47.574Z,2.53
2018-02-01T23:56:15.100Z,2.40
2018-02-01T23:58:42.654Z,3.30
